Airfield :







YOU CAN JOIN US ON...

 
LOGIN :

Register | Disclaimer

   EN    FR    IT 

 









Legend :    VFR   Marginal VFR   IFR   Intensive IFR   Very Intensive IFR
Visi :
Ceiling :
>= 8 km
>= 3000ft
5 to 8 km
1000 to 3000 ft
1500m to 5 km
500 to 1000 ft
800 to 1500m
200 to 500 ft
< 800m
< 200 ft
Symbols :   Thunderstorms  Fog  Heavy snow  Heavy precipitations  Wind > 20 kt






- Airport Elevation : 270 ft
- IATA code : YMX


CYMX - Montreal International Mirabel

CURRENT METAR :
  • 280800Z 25007KT 25SM SCT230 24/17 A3002 RMK CI4 SLP167 DENSITY ALT 1300FT

EXPIRED METARs :
  • 280700Z 25005KT 220V290 25SM SCT240 24/17 A3003 RMK CI3 SLP168 DENSITY ALT 1300FT
  • 280600Z 25004KT 220V290 25SM FEW230 24/18 A3003 RMK CI2 SLP168 DENSITY ALT 1300FT

TAF TAF CYMX
Valid from the 28 at 06:00 until the 29 at 06:00 UTC


280538Z 2806/2906 25005KT P6SM FEW230
FM281000 22008KT P6SM SCT160 BKN220
BECMG 2812/2814 22012KT
FM282000 22010G20KT P6SM OVC140
FM290200 21012KT 5SM -RA BR OVC012
FM290400 22008KT 11/2SM -RA -DZ BR OVC006 RMK NXT FCST BY 281200Z
CZUL FIR / North America



MET'MAP, your aeronautical weather chart ! - Copyright ORBIFLY December 2007 - Disclaimer

ORBIFLY MET'MAP TEAM :

Programming & Development : Alexandra Zaïnal
Concept & original design : Baudouin d'Aumeries
Assistance for programming : Marc-Olivier Méhu
Technical & hardware support : Manuel Goepfert

Contact : metmap@orbifly.com




SOURCES & CREDITS :

   NOAA